Time;durP1;ratioP1;P1;durP2;ratioP2;P2;SDS_P1;SDS_P2;PMS_P1;PMS_P2;Temp;Humidity;BMP_temperature;BMP_pressure;BME280_temperature;BME280_humidity;BME280_pressure;Samples;Min_cycle;Max_cycle;Signal;HPM_P1;HPM_P2
2023/09/12 00:01:52;;;;;;;21.63;10.15;;;;;;;;;;5073015;28;20497;-79
2023/09/12 00:04:18;;;;;;;29.23;13.10;;;;;;;;;;5073741;28;20376;-79
2023/09/12 00:06:43;;;;;;;28.85;11.40;;;;;;;;;;5072952;28;20071;-79
2023/09/12 00:09:08;;;;;;;21.30;10.98;;;;;;;;;;5073473;28;20081;-80
2023/09/12 00:11:34;;;;;;;18.00;10.02;;;;;;;;;;5074159;28;20035;-79
2023/09/12 00:13:59;;;;;;;24.63;11.05;;;;;;;;;;5073451;28;20091;-80
2023/09/12 00:16:25;;;;;;;26.35;11.52;;;;;;;;;;5071397;28;20028;-80
2023/09/12 00:18:53;;;;;;;21.38;11.05;;;;;;;;;;5063449;28;20130;-80
2023/09/12 00:21:21;;;;;;;23.63;11.80;;;;;;;;;;5072647;28;20484;-79
2023/09/12 00:23:47;;;;;;;28.35;12.88;;;;;;;;;;5072797;28;20013;-80
2023/09/12 00:26:12;;;;;;;25.75;13.10;;;;;;;;;;5072087;28;20094;-79
2023/09/12 00:28:38;;;;;;;25.45;12.48;;;;;;;;;;5069748;28;20460;-80
2023/09/12 00:31:03;;;;;;;26.40;12.75;;;;;;;;;;5060503;28;20028;-79
2023/09/12 00:33:29;;;;;;;22.38;12.25;;;;;;;;;;5071994;28;20117;-79
2023/09/12 00:35:54;;;;;;;25.40;11.68;;;;;;;;;;5073228;28;20048;-79
2023/09/12 00:38:19;;;;;;;22.50;11.93;;;;;;;;;;5072501;28;20090;-79
2023/09/12 00:40:45;;;;;;;23.25;11.93;;;;;;;;;;5073284;28;20028;-80
2023/09/12 00:43:10;;;;;;;20.88;11.63;;;;;;;;;;5073343;28;20017;-81
2023/09/12 00:45:35;;;;;;;25.05;11.48;;;;;;;;;;5071954;28;20585;-80
2023/09/12 00:48:02;;;;;;;23.63;11.80;;;;;;;;;;5064575;28;20158;-80
2023/09/12 00:50:31;;;;;;;17.83;10.57;;;;;;;;;;5072013;28;20024;-80
2023/09/12 00:52:57;;;;;;;22.77;10.52;;;;;;;;;;5073298;28;20414;-80
2023/09/12 00:55:22;;;;;;;20.15;10.02;;;;;;;;;;5071845;28;20115;-80
2023/09/12 00:57:49;;;;;;;26.52;11.02;;;;;;;;;;5070808;28;20048;-80
2023/09/12 01:00:17;;;;;;;20.98;10.15;;;;;;;;;;5071484;28;20025;-80
2023/09/12 01:02:43;;;;;;;26.58;10.70;;;;;;;;;;5071502;28;20383;-80
2023/09/12 01:05:10;;;;;;;23.15;11.45;;;;;;;;;;5071506;28;20024;-80
2023/09/12 01:07:38;;;;;;;22.08;11.10;;;;;;;;;;5070660;28;20040;-79
2023/09/12 01:10:07;;;;;;;20.13;10.70;;;;;;;;;;5068344;28;20055;-79
2023/09/12 01:12:32;;;;;;;26.25;11.70;;;;;;;;;;5099603;28;20016;-79
2023/09/12 01:14:58;;;;;;;19.33;10.35;;;;;;;;;;5073238;28;20052;-80
2023/09/12 01:17:24;;;;;;;19.73;9.45;;;;;;;;;;5071210;28;20033;-79
2023/09/12 01:19:49;;;;;;;18.67;10.52;;;;;;;;;;5072090;28;20380;-80
2023/09/12 01:22:15;;;;;;;23.00;9.60;;;;;;;;;;5071982;28;20040;-80
2023/09/12 01:24:59;;;;;;;23.15;10.52;;;;;;;;;;5071636;28;20012;-80
2023/09/12 01:27:30;;;;;;;24.85;9.68;;;;;;;;;;5070856;28;20020;-81
2023/09/12 01:30:00;;;;;;;18.90;10.60;;;;;;;;;;5060123;28;20495;-80
2023/09/12 01:32:28;;;;;;;18.92;9.75;;;;;;;;;;5070597;28;20017;-80
2023/09/12 01:34:53;;;;;;;15.82;10.02;;;;;;;;;;5071401;28;20020;-80
2023/09/12 01:37:19;;;;;;;22.27;10.27;;;;;;;;;;5070252;28;20027;-80
2023/09/12 01:39:49;;;;;;;23.00;10.90;;;;;;;;;;5071046;28;20032;-79
2023/09/12 01:42:16;;;;;;;22.02;9.80;;;;;;;;;;5070886;28;20054;-80
2023/09/12 01:44:44;;;;;;;18.90;10.02;;;;;;;;;;5070479;28;20089;-79
2023/09/12 01:47:10;;;;;;;23.15;10.77;;;;;;;;;;5067935;28;20478;-80
2023/09/12 01:49:37;;;;;;;21.02;10.20;;;;;;;;;;5070814;28;20127;-79
2023/09/12 01:52:02;;;;;;;19.35;10.23;;;;;;;;;;5070616;28;20465;-80
2023/09/12 01:54:28;;;;;;;20.02;10.70;;;;;;;;;;5066896;28;20013;-80
2023/09/12 01:56:57;;;;;;;21.00;9.85;;;;;;;;;;5070868;28;20498;-79
2023/09/12 01:59:23;;;;;;;27.88;10.30;;;;;;;;;;5057068;28;20005;-80
2023/09/12 02:01:48;;;;;;;19.90;9.88;;;;;;;;;;5069103;28;20020;-80
2023/09/12 02:04:13;;;;;;;16.92;9.27;;;;;;;;;;5061428;28;20020;-80
2023/09/12 02:06:38;;;;;;;23.92;9.90;;;;;;;;;;5070063;28;20025;-80
2023/09/12 02:09:04;;;;;;;21.27;10.77;;;;;;;;;;5070293;28;20024;-80
2023/09/12 02:11:32;;;;;;;23.58;11.45;;;;;;;;;;5058888;28;20107;-80
2023/09/12 02:13:57;;;;;;;19.88;9.73;;;;;;;;;;5063970;28;20031;-80
2023/09/12 02:16:23;;;;;;;21.85;9.80;;;;;;;;;;5059992;28;20448;-79
2023/09/12 02:18:57;;;;;;;20.80;9.40;;;;;;;;;;5070537;28;20086;-79
2023/09/12 02:21:22;;;;;;;17.95;9.55;;;;;;;;;;5071645;28;20028;-79
2023/09/12 02:23:47;;;;;;;22.63;9.23;;;;;;;;;;5062742;28;20029;-80
2023/09/12 02:26:13;;;;;;;18.13;8.82;;;;;;;;;;5070706;28;20032;-80
2023/09/12 02:28:38;;;;;;;25.05;9.18;;;;;;;;;;5067432;28;20047;-79
2023/09/12 02:31:12;;;;;;;16.83;9.13;;;;;;;;;;5070463;28;20044;-80
2023/09/12 02:33:38;;;;;;;16.27;9.20;;;;;;;;;;5069958;28;20016;-79
2023/09/12 02:36:03;;;;;;;18.83;10.20;;;;;;;;;;5070645;28;20024;-80
2023/09/12 02:38:28;;;;;;;22.63;11.45;;;;;;;;;;5071361;28;20027;-80
2023/09/12 02:40:55;;;;;;;20.60;10.48;;;;;;;;;;5070781;28;20020;-79
2023/09/12 02:43:21;;;;;;;25.80;10.75;;;;;;;;;;5069262;28;20029;-80
2023/09/12 02:45:46;;;;;;;20.67;10.93;;;;;;;;;;5065942;28;20023;-79
2023/09/12 02:48:12;;;;;;;17.42;9.07;;;;;;;;;;5071755;28;20024;-79
2023/09/12 02:50:37;;;;;;;17.40;9.32;;;;;;;;;;5071293;28;20464;-79
2023/09/12 02:53:03;;;;;;;17.77;9.35;;;;;;;;;;5066529;28;20052;-79
2023/09/12 02:55:28;;;;;;;21.55;10.10;;;;;;;;;;5072040;28;20479;-80
2023/09/12 02:57:53;;;;;;;20.20;9.60;;;;;;;;;;5072418;28;20012;-79
2023/09/12 03:00:19;;;;;;;17.80;10.13;;;;;;;;;;5074165;28;20025;-80
2023/09/12 03:02:45;;;;;;;18.23;9.15;;;;;;;;;;5073793;28;20467;-79
2023/09/12 03:05:12;;;;;;;21.02;9.95;;;;;;;;;;5073221;28;20154;-79
2023/09/12 03:07:40;;;;;;;21.55;9.77;;;;;;;;;;5075620;28;20027;-79
2023/09/12 03:10:05;;;;;;;21.17;9.38;;;;;;;;;;5073314;28;20029;-80
2023/09/12 03:12:31;;;;;;;19.17;9.07;;;;;;;;;;5073379;28;20397;-80
2023/09/12 03:14:56;;;;;;;13.93;8.32;;;;;;;;;;5072373;28;20484;-80
2023/09/12 03:17:21;;;;;;;15.25;8.35;;;;;;;;;;5059569;28;20098;-79
2023/09/12 03:19:49;;;;;;;15.50;8.30;;;;;;;;;;5073414;28;20119;-79
2023/09/12 03:22:14;;;;;;;17.38;8.27;;;;;;;;;;5069082;28;20023;-80
2023/09/12 03:24:40;;;;;;;14.13;7.55;;;;;;;;;;5065914;28;20028;-80
2023/09/12 03:27:05;;;;;;;16.27;7.97;;;;;;;;;;5073435;28;20016;-80
2023/09/12 03:29:33;;;;;;;12.30;7.53;;;;;;;;;;5074642;28;20048;-80
2023/09/12 03:31:58;;;;;;;17.40;7.57;;;;;;;;;;5072251;28;20017;-79
2023/09/12 03:34:23;;;;;;;13.27;7.05;;;;;;;;;;5073861;28;20023;-79
2023/09/12 03:36:49;;;;;;;15.68;7.82;;;;;;;;;;5072895;28;20051;-79
2023/09/12 03:39:14;;;;;;;20.17;8.18;;;;;;;;;;5074582;28;20126;-80
2023/09/12 03:41:40;;;;;;;14.00;7.60;;;;;;;;;;5074572;28;20036;-80
2023/09/12 03:44:10;;;;;;;14.07;7.38;;;;;;;;;;5067715;28;20036;-80
2023/09/12 03:46:38;;;;;;;15.82;8.52;;;;;;;;;;5074405;28;20056;-79
2023/09/12 03:49:03;;;;;;;19.70;9.25;;;;;;;;;;5072901;28;20020;-79
2023/09/12 03:51:29;;;;;;;19.05;8.57;;;;;;;;;;5073190;28;20026;-79
2023/09/12 03:53:54;;;;;;;19.38;9.57;;;;;;;;;;5072140;28;20020;-80
2023/09/12 03:56:21;;;;;;;22.58;9.38;;;;;;;;;;5074256;28;20016;-80
2023/09/12 03:58:47;;;;;;;20.70;9.52;;;;;;;;;;5073279;28;20027;-79
2023/09/12 04:01:12;;;;;;;19.90;9.10;;;;;;;;;;5073208;28;20028;-79
2023/09/12 04:03:37;;;;;;;20.23;9.75;;;;;;;;;;5058510;28;20361;-79
2023/09/12 04:06:03;;;;;;;18.58;9.07;;;;;;;;;;5072837;28;20016;-80
2023/09/12 04:08:28;;;;;;;17.02;8.18;;;;;;;;;;5073845;28;20083;-79
2023/09/12 04:10:56;;;;;;;17.75;8.30;;;;;;;;;;5069645;28;20454;-79
2023/09/12 04:13:22;;;;;;;20.08;8.35;;;;;;;;;;5072437;28;20085;-80
2023/09/12 04:15:47;;;;;;;28.13;9.45;;;;;;;;;;5074551;28;20092;-78
2023/09/12 04:18:13;;;;;;;15.40;8.38;;;;;;;;;;5072831;28;20025;-79
2023/09/12 04:20:39;;;;;;;29.02;9.23;;;;;;;;;;5072120;28;20035;-79
2023/09/12 04:23:04;;;;;;;18.95;8.88;;;;;;;;;;5072216;28;20099;-79
2023/09/12 04:25:30;;;;;;;17.25;8.05;;;;;;;;;;5069769;28;20043;-79
2023/09/12 04:27:55;;;;;;;19.15;8.20;;;;;;;;;;5061851;28;20070;-80
2023/09/12 04:30:20;;;;;;;20.85;9.35;;;;;;;;;;5072410;28;20101;-79
2023/09/12 04:32:46;;;;;;;20.65;10.05;;;;;;;;;;5072431;28;20067;-80
2023/09/12 04:35:11;;;;;;;23.35;10.13;;;;;;;;;;5070572;28;20139;-80
2023/09/12 04:37:37;;;;;;;26.83;10.23;;;;;;;;;;5072168;28;20360;-79
2023/09/12 04:40:05;;;;;;;23.33;11.82;;;;;;;;;;5072313;28;20031;-80
2023/09/12 04:42:30;;;;;;;20.38;10.48;;;;;;;;;;5071483;28;20425;-80
2023/09/12 04:44:55;;;;;;;21.80;12.02;;;;;;;;;;5068959;28;20115;-79
2023/09/12 04:47:22;;;;;;;24.92;11.80;;;;;;;;;;5071968;28;20123;-79
2023/09/12 04:49:47;;;;;;;21.17;11.27;;;;;;;;;;5071882;28;20016;-79
2023/09/12 04:52:12;;;;;;;24.33;12.30;;;;;;;;;;5070551;28;20230;-79
2023/09/12 04:54:40;;;;;;;24.77;11.93;;;;;;;;;;5070787;28;20017;-79
2023/09/12 04:57:08;;;;;;;24.33;12.50;;;;;;;;;;5071800;28;20020;-78
2023/09/12 04:59:34;;;;;;;23.30;12.45;;;;;;;;;;5072892;28;20095;-79
2023/09/12 05:02:02;;;;;;;25.33;12.93;;;;;;;;;;5066380;28;20198;-79
2023/09/12 05:04:30;;;;;;;24.45;11.63;;;;;;;;;;5070836;28;20324;-80
2023/09/12 05:06:55;;;;;;;22.45;11.40;;;;;;;;;;5071372;28;20021;-79
2023/09/12 05:09:20;;;;;;;25.95;12.65;;;;;;;;;;5071850;28;20043;-80
2023/09/12 05:11:46;;;;;;;25.27;12.55;;;;;;;;;;5071039;28;20040;-79
2023/09/12 05:14:14;;;;;;;25.23;12.23;;;;;;;;;;5070782;28;20584;-80
2023/09/12 05:16:39;;;;;;;28.98;13.35;;;;;;;;;;5070988;28;20081;-79
2023/09/12 05:19:05;;;;;;;29.90;14.38;;;;;;;;;;5059757;28;20020;-80
2023/09/12 05:21:30;;;;;;;28.58;13.65;;;;;;;;;;5059220;28;20025;-80
2023/09/12 05:23:55;;;;;;;27.67;13.57;;;;;;;;;;5070141;28;20025;-79
2023/09/12 05:26:21;;;;;;;29.67;13.75;;;;;;;;;;5065465;28;20021;-79
2023/09/12 05:28:46;;;;;;;30.33;14.40;;;;;;;;;;5067650;28;20020;-80
2023/09/12 05:31:14;;;;;;;28.23;13.90;;;;;;;;;;5067462;28;20089;-79
2023/09/12 05:33:40;;;;;;;29.88;14.10;;;;;;;;;;5073000;28;20028;-79
2023/09/12 05:36:05;;;;;;;23.40;12.77;;;;;;;;;;5071115;28;20345;-81
2023/09/12 05:38:30;;;;;;;27.23;13.00;;;;;;;;;;5072344;28;20016;-80
2023/09/12 05:40:56;;;;;;;25.25;12.75;;;;;;;;;;5069914;28;20086;-80
2023/09/12 05:43:22;;;;;;;25.13;13.02;;;;;;;;;;5065095;28;20451;-79
2023/09/12 05:45:47;;;;;;;28.63;13.20;;;;;;;;;;5067929;28;20413;-79
2023/09/12 05:48:12;;;;;;;29.38;13.02;;;;;;;;;;5071757;28;20460;-80
2023/09/12 05:50:38;;;;;;;30.40;12.90;;;;;;;;;;5072689;28;20016;-79
2023/09/12 05:53:03;;;;;;;25.00;12.25;;;;;;;;;;5067367;28;20472;-80
2023/09/12 05:55:31;;;;;;;27.88;13.95;;;;;;;;;;5097005;28;20052;-79
2023/09/12 05:57:57;;;;;;;29.15;12.35;;;;;;;;;;5069227;28;20479;-80
2023/09/12 06:00:22;;;;;;;25.63;13.07;;;;;;;;;;5070384;28;20052;-80
2023/09/12 06:02:48;;;;;;;27.88;13.02;;;;;;;;;;5068016;28;20020;-81
2023/09/12 06:05:13;;;;;;;31.65;14.00;;;;;;;;;;5067389;28;20017;-80
2023/09/12 06:07:40;;;;;;;30.00;13.48;;;;;;;;;;5069061;28;20020;-81
2023/09/12 06:10:06;;;;;;;29.73;13.88;;;;;;;;;;5071531;28;20025;-81
2023/09/12 06:12:32;;;;;;;24.10;12.57;;;;;;;;;;5070642;28;20510;-80
2023/09/12 06:14:58;;;;;;;27.98;13.50;;;;;;;;;;5070734;28;20028;-81
2023/09/12 06:17:23;;;;;;;35.08;14.38;;;;;;;;;;5059472;28;20352;-81
2023/09/12 06:19:51;;;;;;;30.15;15.07;;;;;;;;;;5070536;28;20020;-82
2023/09/12 06:22:17;;;;;;;34.70;14.98;;;;;;;;;;5069307;28;20505;-81
2023/09/12 06:24:42;;;;;;;34.28;14.38;;;;;;;;;;5060320;28;20013;-81
2023/09/12 06:27:08;;;;;;;30.75;14.25;;;;;;;;;;5082182;28;20108;-80
2023/09/12 06:29:33;;;;;;;31.20;12.95;;;;;;;;;;5073300;28;20098;-81
2023/09/12 06:31:58;;;;;;;29.83;13.15;;;;;;;;;;5071900;28;20432;-81
2023/09/12 06:34:24;;;;;;;25.05;12.65;;;;;;;;;;5060957;28;20021;-81
2023/09/12 06:36:49;;;;;;;28.60;13.32;;;;;;;;;;5073010;28;20103;-79
2023/09/12 06:39:14;;;;;;;26.05;13.98;;;;;;;;;;5068243;28;20332;-81
2023/09/12 06:41:40;;;;;;;28.42;14.02;;;;;;;;;;5061456;28;20032;-81
2023/09/12 06:44:06;;;;;;;31.38;14.82;;;;;;;;;;5070206;28;20024;-81
2023/09/12 06:46:35;;;;;;;32.35;14.30;;;;;;;;;;5071483;28;20553;-81
2023/09/12 06:49:01;;;;;;;37.45;15.63;;;;;;;;;;5068783;28;20380;-80
2023/09/12 06:51:27;;;;;;;31.17;15.05;;;;;;;;;;5074061;28;20025;-79
2023/09/12 06:53:52;;;;;;;30.48;15.02;;;;;;;;;;5063495;28;20089;-81
2023/09/12 06:56:17;;;;;;;30.08;14.65;;;;;;;;;;5071526;28;20067;-81
2023/09/12 06:58:43;;;;;;;30.60;15.35;;;;;;;;;;5075605;28;20032;-81
2023/09/12 07:01:09;;;;;;;33.38;15.82;;;;;;;;;;5075545;28;20024;-80
2023/09/12 07:03:35;;;;;;;32.15;16.33;;;;;;;;;;5062309;28;20023;-81
2023/09/12 07:06:03;;;;;;;43.80;18.00;;;;;;;;;;5075040;28;20491;-79
2023/09/12 07:08:32;;;;;;;43.53;19.02;;;;;;;;;;5068163;28;20420;-80
2023/09/12 07:10:59;;;;;;;48.17;19.25;;;;;;;;;;5072876;28;20158;-81
2023/09/12 07:13:25;;;;;;;47.60;20.35;;;;;;;;;;5072219;28;20016;-81
2023/09/12 07:15:50;;;;;;;46.70;21.20;;;;;;;;;;5073556;28;20490;-81
2023/09/12 07:18:16;;;;;;;58.53;21.98;;;;;;;;;;5072849;28;20169;-82
2023/09/12 07:20:41;;;;;;;53.70;21.95;;;;;;;;;;5073622;28;20035;-81
2023/09/12 07:23:07;;;;;;;47.85;21.52;;;;;;;;;;5065362;28;20071;-81
2023/09/12 07:25:37;;;;;;;46.47;20.80;;;;;;;;;;5071892;28;20043;-82
2023/09/12 07:28:03;;;;;;;55.83;21.25;;;;;;;;;;5074222;28;20021;-81
2023/09/12 07:30:30;;;;;;;50.38;19.40;;;;;;;;;;5071879;28;20361;-81
2023/09/12 07:32:55;;;;;;;50.78;20.98;;;;;;;;;;5064230;28;20426;-81
2023/09/12 07:35:23;;;;;;;54.50;20.25;;;;;;;;;;5073586;28;20024;-81
2023/09/12 07:37:49;;;;;;;53.63;22.08;;;;;;;;;;5073439;28;20020;-81
2023/09/12 07:40:14;;;;;;;54.17;23.10;;;;;;;;;;5072331;28;20024;-82
2023/09/12 07:42:39;;;;;;;58.20;22.15;;;;;;;;;;5067597;28;20017;-81
2023/09/12 07:45:07;;;;;;;62.33;23.08;;;;;;;;;;5096128;28;20013;-81
2023/09/12 07:47:33;;;;;;;52.33;21.73;;;;;;;;;;5072945;28;20329;-81
2023/09/12 07:50:00;;;;;;;46.28;18.88;;;;;;;;;;5068967;28;20020;-81
2023/09/12 07:52:25;;;;;;;46.05;19.85;;;;;;;;;;5072957;28;20490;-82
2023/09/12 07:54:53;;;;;;;50.60;20.60;;;;;;;;;;5070452;28;20024;-81
2023/09/12 07:57:18;;;;;;;49.10;19.55;;;;;;;;;;5072184;28;20486;-81
2023/09/12 07:59:44;;;;;;;42.83;18.50;;;;;;;;;;5072010;28;20111;-81
2023/09/12 08:02:12;;;;;;;48.28;18.23;;;;;;;;;;5065848;28;20021;-81
2023/09/12 08:04:38;;;;;;;48.65;19.40;;;;;;;;;;5059445;28;20020;-81
2023/09/12 08:07:03;;;;;;;47.88;21.80;;;;;;;;;;5065019;28;20020;-81
2023/09/12 08:09:51;;;;;;;48.15;20.73;;;;;;;;;;5103660;28;20021;-81
2023/09/12 08:12:16;;;;;;;49.88;21.10;;;;;;;;;;5067506;28;20032;-79
2023/09/12 08:14:42;;;;;;;46.10;19.75;;;;;;;;;;5065413;28;20467;-80
2023/09/12 08:17:07;;;;;;;46.13;19.10;;;;;;;;;;5069645;28;20052;-80
2023/09/12 08:19:33;;;;;;;45.67;20.63;;;;;;;;;;5073490;28;20024;-81
2023/09/12 08:22:00;;;;;;;36.28;17.17;;;;;;;;;;5074091;28;20031;-81
2023/09/12 08:24:28;;;;;;;45.63;19.52;;;;;;;;;;5075991;28;20013;-80
2023/09/12 08:26:54;;;;;;;47.30;20.85;;;;;;;;;;5074376;28;20103;-81
2023/09/12 08:29:20;;;;;;;46.70;18.52;;;;;;;;;;5081464;28;20482;-81
2023/09/12 08:31:47;;;;;;;37.83;15.55;;;;;;;;;;5077195;28;20424;-81
2023/09/12 08:34:12;;;;;;;37.70;16.52;;;;;;;;;;5073255;28;20104;-80
2023/09/12 08:36:37;;;;;;;35.40;15.07;;;;;;;;;;5088964;28;20024;-80
2023/09/12 08:39:04;;;;;;;34.65;12.32;;;;;;;;;;5073305;28;20749;-80
2023/09/12 08:41:29;;;;;;;32.70;13.98;;;;;;;;;;5072690;28;20024;-80
2023/09/12 08:43:55;;;;;;;36.28;13.57;;;;;;;;;;5073993;28;20046;-80
2023/09/12 08:46:22;;;;;;;38.67;14.90;;;;;;;;;;5070914;28;20016;-80
2023/09/12 08:48:49;;;;;;;27.15;12.55;;;;;;;;;;5060142;28;20032;-80
2023/09/12 08:51:14;;;;;;;33.05;12.73;;;;;;;;;;5062436;28;20501;-80
2023/09/12 08:53:40;;;;;;;27.33;12.23;;;;;;;;;;5070967;28;20483;-81
2023/09/12 08:56:05;;;;;;;26.10;11.23;;;;;;;;;;5072450;28;20025;-81
2023/09/12 08:58:34;;;;;;;21.85;9.10;;;;;;;;;;5067754;28;20039;-80
2023/09/12 09:01:00;;;;;;;19.52;8.85;;;;;;;;;;5072345;28;20052;-81
2023/09/12 09:03:26;;;;;;;22.38;10.07;;;;;;;;;;5057772;28;20157;-81
2023/09/12 09:05:52;;;;;;;19.15;9.68;;;;;;;;;;5061764;28;20028;-81
2023/09/12 09:08:19;;;;;;;20.02;9.55;;;;;;;;;;5067308;28;20074;-81
2023/09/12 09:10:57;;;;;;;22.55;10.82;;;;;;;;;;5071803;28;20047;-81
2023/09/12 09:13:26;;;;;;;21.50;9.95;;;;;;;;;;5071276;28;20437;-81
2023/09/12 09:16:14;;;;;;;23.45;9.73;;;;;;;;;;5070569;28;20044;-81
2023/09/12 09:18:53;;;;;;;24.67;10.98;;;;;;;;;;5068990;28;20032;-81
2023/09/12 09:21:19;;;;;;;27.77;10.80;;;;;;;;;;5071393;28;20020;-81
2023/09/12 09:23:46;;;;;;;16.33;8.82;;;;;;;;;;5071254;28;20111;-80
2023/09/12 09:26:11;;;;;;;17.00;7.97;;;;;;;;;;5070625;28;20037;-81
2023/09/12 09:28:36;;;;;;;26.33;10.35;;;;;;;;;;5071729;28;20017;-80
2023/09/12 09:31:04;;;;;;;18.08;9.55;;;;;;;;;;5072040;28;20024;-80
2023/09/12 09:33:34;;;;;;;18.52;9.55;;;;;;;;;;5064211;28;20120;-81
2023/09/12 09:36:04;;;;;;;19.83;8.32;;;;;;;;;;5070354;28;20028;-81
2023/09/12 09:38:34;;;;;;;25.20;11.73;;;;;;;;;;5064614;28;20025;-81
2023/09/12 09:40:59;;;;;;;29.38;12.00;;;;;;;;;;5072156;28;20096;-81
2023/09/12 09:43:24;;;;;;;25.70;9.43;;;;;;;;;;5068422;28;20146;-80
2023/09/12 09:45:50;;;;;;;23.50;9.45;;;;;;;;;;5073496;28;20027;-81
2023/09/12 09:48:26;;;;;;;26.23;9.55;;;;;;;;;;5073418;28;20446;-80
2023/09/12 09:50:52;;;;;;;23.15;10.32;;;;;;;;;;5070990;28;20035;-81
2023/09/12 09:53:24;;;;;;;21.52;9.88;;;;;;;;;;5066081;28;20535;-81
2023/09/12 09:55:49;;;;;;;27.02;11.15;;;;;;;;;;5072952;28;20044;-80
2023/09/12 09:58:16;;;;;;;23.15;9.60;;;;;;;;;;5071446;28;20502;-81
2023/09/12 10:00:42;;;;;;;24.80;10.55;;;;;;;;;;5070990;28;20028;-81
2023/09/12 10:03:08;;;;;;;20.05;9.30;;;;;;;;;;5060521;28;20021;-80
2023/09/12 10:05:35;;;;;;;17.70;8.20;;;;;;;;;;5070412;28;20065;-81
2023/09/12 10:08:02;;;;;;;22.25;9.40;;;;;;;;;;5071903;28;20013;-81
2023/09/12 10:10:29;;;;;;;23.95;10.88;;;;;;;;;;5070820;28;20028;-80
2023/09/12 10:12:57;;;;;;;21.70;9.68;;;;;;;;;;5070481;28;20379;-81
2023/09/12 10:15:22;;;;;;;20.17;8.32;;;;;;;;;;5069195;28;20031;-82
2023/09/12 10:17:53;;;;;;;20.33;9.80;;;;;;;;;;5065626;28;20032;-80
2023/09/12 10:20:21;;;;;;;26.45;9.93;;;;;;;;;;5066711;28;20361;-81
2023/09/12 10:22:53;;;;;;;16.40;8.75;;;;;;;;;;5069818;28;20379;-81
2023/09/12 10:25:19;;;;;;;20.02;7.90;;;;;;;;;;5071755;28;20481;-81
2023/09/12 10:27:44;;;;;;;16.27;8.35;;;;;;;;;;5070658;28;20048;-81
2023/09/12 10:30:10;;;;;;;23.73;10.43;;;;;;;;;;5069099;28;20020;-80
2023/09/12 10:32:36;;;;;;;21.73;9.45;;;;;;;;;;5056424;28;20103;-81
2023/09/12 10:35:03;;;;;;;24.75;9.80;;;;;;;;;;5070450;28;20463;-81
2023/09/12 10:37:29;;;;;;;19.05;9.20;;;;;;;;;;5070039;28;20036;-81
2023/09/12 10:39:55;;;;;;;19.73;8.43;;;;;;;;;;5070331;28;20017;-79
2023/09/12 10:42:21;;;;;;;34.05;13.70;;;;;;;;;;5070698;28;20406;-80
2023/09/12 10:44:47;;;;;;;28.60;12.15;;;;;;;;;;5070116;28;20020;-81
2023/09/12 10:47:13;;;;;;;30.08;9.52;;;;;;;;;;5065259;28;20025;-81
2023/09/12 10:49:39;;;;;;;20.73;9.75;;;;;;;;;;5064533;28;20052;-81
2023/09/12 10:52:04;;;;;;;17.48;8.85;;;;;;;;;;5063909;28;20078;-81
2023/09/12 10:54:37;;;;;;;23.13;11.20;;;;;;;;;;5070119;28;20467;-81
2023/09/12 10:57:13;;;;;;;24.35;11.27;;;;;;;;;;5071744;28;20082;-80
2023/09/12 11:00:17;;;;;;;23.23;9.43;;;;;;;;;;5070107;28;20502;-81
2023/09/12 11:02:43;;;;;;;16.55;8.02;;;;;;;;;;5013056;28;20044;-82
2023/09/12 11:05:31;;;;;;;16.95;9.20;;;;;;;;;;5006824;28;20018;-82
2023/09/12 11:07:57;;;;;;;15.60;7.95;;;;;;;;;;5039644;28;20075;-82
2023/09/12 11:10:23;;;;;;;16.80;8.20;;;;;;;;;;5068648;28;20020;-82
2023/09/12 11:12:53;;;;;;;20.40;9.02;;;;;;;;;;5076760;28;20020;-82
2023/09/12 11:15:20;;;;;;;16.02;8.40;;;;;;;;;;5067786;28;20490;-82
2023/09/12 11:17:46;;;;;;;19.27;8.45;;;;;;;;;;5063059;28;20028;-83
2023/09/12 11:20:12;;;;;;;23.25;7.80;;;;;;;;;;5074348;28;20020;-81
2023/09/12 11:22:42;;;;;;;17.80;8.95;;;;;;;;;;5061111;28;20170;-80
2023/09/12 11:25:22;;;;;;;18.42;8.40;;;;;;;;;;5063506;28;20017;-82
2023/09/12 11:27:51;;;;;;;16.83;7.47;;;;;;;;;;5061789;28;20048;-82
2023/09/12 11:30:23;;;;;;;15.35;7.13;;;;;;;;;;5073383;28;20135;-82
2023/09/12 11:32:50;;;;;;;16.05;8.30;;;;;;;;;;5074415;28;20146;-81
2023/09/12 11:35:16;;;;;;;14.50;7.30;;;;;;;;;;5074272;28;20493;-82
2023/09/12 11:38:08;;;;;;;15.05;6.90;;;;;;;;;;5074762;28;20320;-82
2023/09/12 11:40:33;;;;;;;13.25;6.60;;;;;;;;;;5071672;28;20029;-82
2023/09/12 11:42:58;;;;;;;15.40;8.70;;;;;;;;;;5072426;28;20023;-82
2023/09/12 11:45:27;;;;;;;16.02;6.85;;;;;;;;;;5055106;28;20089;-81
2023/09/12 11:47:55;;;;;;;11.82;6.28;;;;;;;;;;5069768;28;20391;-81
2023/09/12 11:50:38;;;;;;;14.73;7.75;;;;;;;;;;5064983;28;20125;-83
2023/09/12 11:53:07;;;;;;;12.07;6.65;;;;;;;;;;5055804;28;20508;-80
2023/09/12 11:55:53;;;;;;;17.73;6.97;;;;;;;;;;5065612;28;20508;-82
2023/09/12 11:58:19;;;;;;;15.40;7.63;;;;;;;;;;5072786;28;20363;-83
2023/09/12 12:00:54;;;;;;;16.90;7.35;;;;;;;;;;5072067;28;20438;-82
2023/09/12 12:03:20;;;;;;;12.43;6.43;;;;;;;;;;5055495;28;20013;-82
2023/09/12 12:05:46;;;;;;;9.43;5.30;;;;;;;;;;5070231;28;20352;-82
2023/09/12 12:08:11;;;;;;;11.38;5.47;;;;;;;;;;5068924;28;20021;-82
2023/09/12 12:10:40;;;;;;;18.73;6.15;;;;;;;;;;5071366;28;20086;-82
2023/09/12 12:13:27;;;;;;;13.00;6.22;;;;;;;;;;5072044;28;20036;-82
2023/09/12 12:15:53;;;;;;;17.13;6.13;;;;;;;;;;5073951;28;20035;-83
2023/09/12 12:18:18;;;;;;;9.75;5.57;;;;;;;;;;5066344;28;20025;-82
2023/09/12 12:20:44;;;;;;;13.50;7.32;;;;;;;;;;5066544;28;20086;-82
2023/09/12 12:23:17;;;;;;;9.85;5.93;;;;;;;;;;5067122;28;20451;-82
2023/09/12 12:25:48;;;;;;;9.20;5.75;;;;;;;;;;5058942;28;20020;-82
2023/09/12 12:28:21;;;;;;;11.45;6.03;;;;;;;;;;5072022;28;20444;-82
2023/09/12 12:30:50;;;;;;;14.00;6.90;;;;;;;;;;5071490;28;20021;-81
2023/09/12 12:33:15;;;;;;;10.98;6.28;;;;;;;;;;5062549;28;20070;-82
2023/09/12 12:35:41;;;;;;;12.90;6.30;;;;;;;;;;5070696;28;20024;-82
2023/09/12 12:38:06;;;;;;;12.95;6.47;;;;;;;;;;5076549;28;20082;-81
2023/09/12 12:40:37;;;;;;;14.15;8.00;;;;;;;;;;5062713;28;20499;-82
2023/09/12 12:43:02;;;;;;;15.05;7.53;;;;;;;;;;5073096;28;20020;-82
2023/09/12 12:45:30;;;;;;;19.15;6.53;;;;;;;;;;5072788;28;20116;-83
2023/09/12 12:47:59;;;;;;;16.27;7.43;;;;;;;;;;5073017;28;20337;-81
2023/09/12 12:50:28;;;;;;;18.90;7.95;;;;;;;;;;5073272;28;20024;-82
2023/09/12 12:52:53;;;;;;;15.10;7.03;;;;;;;;;;5071863;28;20384;-82
2023/09/12 12:55:20;;;;;;;18.55;8.98;;;;;;;;;;5072069;28;20021;-82
2023/09/12 12:57:47;;;;;;;15.90;7.00;;;;;;;;;;5070298;28;20020;-82
2023/09/12 13:00:14;;;;;;;11.77;6.10;;;;;;;;;;5071871;28;20028;-83
2023/09/12 13:02:39;;;;;;;11.38;6.25;;;;;;;;;;5061090;28;20021;-81
2023/09/12 13:05:07;;;;;;;14.65;6.10;;;;;;;;;;5069078;28;20024;-82
2023/09/12 13:07:34;;;;;;;12.43;5.35;;;;;;;;;;5072734;28;20012;-82
2023/09/12 13:09:59;;;;;;;10.52;6.03;;;;;;;;;;5071178;28;20032;-82
2023/09/12 13:12:28;;;;;;;14.88;7.35;;;;;;;;;;5069851;28;20046;-82
2023/09/12 13:14:53;;;;;;;15.43;5.72;;;;;;;;;;5071150;28;20036;-81
2023/09/12 13:17:19;;;;;;;10.30;5.60;;;;;;;;;;5071469;28;20025;-82
2023/09/12 13:19:44;;;;;;;13.13;5.75;;;;;;;;;;5067340;28;20107;-81
2023/09/12 13:22:12;;;;;;;11.23;5.20;;;;;;;;;;5069495;28;20044;-82
2023/09/12 13:24:37;;;;;;;10.43;5.55;;;;;;;;;;5070710;28;20459;-82
2023/09/12 13:27:02;;;;;;;11.82;5.95;;;;;;;;;;5066964;28;20017;-83
2023/09/12 13:29:28;;;;;;;10.20;5.18;;;;;;;;;;5071071;28;20058;-82
2023/09/12 13:31:53;;;;;;;14.75;5.75;;;;;;;;;;5066186;28;20024;-82
2023/09/12 13:34:18;;;;;;;10.23;5.78;;;;;;;;;;5064896;28;20078;-82
2023/09/12 13:36:44;;;;;;;9.13;5.85;;;;;;;;;;5059898;28;20082;-81
2023/09/12 13:39:09;;;;;;;12.32;5.38;;;;;;;;;;5067773;28;20033;-82
2023/09/12 13:41:34;;;;;;;11.20;6.07;;;;;;;;;;5067287;28;20032;-82
2023/09/12 13:44:00;;;;;;;10.18;5.60;;;;;;;;;;5066382;28;20074;-81
2023/09/12 13:46:25;;;;;;;15.02;5.47;;;;;;;;;;5062939;28;20036;-82
2023/09/12 13:48:53;;;;;;;15.88;7.32;;;;;;;;;;5063675;28;20344;-83
2023/09/12 13:51:18;;;;;;;11.60;6.70;;;;;;;;;;5072276;28;20016;-82
2023/09/12 13:53:43;;;;;;;10.75;7.30;;;;;;;;;;5067194;28;20024;-83
2023/09/12 13:56:09;;;;;;;17.55;6.65;;;;;;;;;;5059600;28;20032;-82
2023/09/12 13:58:34;;;;;;;17.25;7.68;;;;;;;;;;5070868;28;20104;-81
2023/09/12 14:01:00;;;;;;;18.88;7.18;;;;;;;;;;5070897;28;20017;-82
2023/09/12 14:03:25;;;;;;;11.27;7.78;;;;;;;;;;5054949;28;20013;-82
2023/09/12 14:05:54;;;;;;;9.88;6.32;;;;;;;;;;5071623;28;20016;-83
2023/09/12 14:08:22;;;;;;;16.17;6.93;;;;;;;;;;5077007;28;20027;-87
2023/09/12 14:10:48;;;;;;;10.68;6.85;;;;;;;;;;5074619;28;20040;-87
2023/09/12 14:13:13;;;;;;;14.82;5.80;;;;;;;;;;5081688;28;20020;-85
2023/09/12 14:15:39;;;;;;;11.32;6.40;;;;;;;;;;5074654;28;20025;-86
2023/09/12 14:18:04;;;;;;;13.90;7.00;;;;;;;;;;5072316;28;20491;-86
2023/09/12 14:20:30;;;;;;;14.07;7.45;;;;;;;;;;5075177;28;20017;-87
2023/09/12 14:22:57;;;;;;;14.65;7.07;;;;;;;;;;5072724;28;20452;-87